createdAt,value
2019-02-05T00:00:56.415Z,3.30
2019-02-05T00:03:44.889Z,3.40
2019-02-05T00:06:26.073Z,3.40
2019-02-05T00:09:07.259Z,3.40
2019-02-05T00:11:48.499Z,3.40
2019-02-05T00:14:29.873Z,3.30
2019-02-05T00:17:11.194Z,3.40
2019-02-05T00:19:52.491Z,3.40
2019-02-05T00:22:33.561Z,3.40
2019-02-05T00:25:14.299Z,3.40
2019-02-05T00:27:55.775Z,3.40
2019-02-05T00:30:36.743Z,3.40
2019-02-05T00:33:17.808Z,3.40
2019-02-05T00:35:59.174Z,3.40
2019-02-05T00:38:40.483Z,3.40
2019-02-05T00:41:21.686Z,3.40
2019-02-05T00:44:02.330Z,3.40
2019-02-05T00:46:43.591Z,3.40
2019-02-05T00:49:24.652Z,3.40
2019-02-05T00:52:05.477Z,3.50
2019-02-05T00:54:34.917Z,3.40
2019-02-05T00:57:23.296Z,3.40
2019-02-05T01:00:14.520Z,3.40
2019-02-05T01:02:55.687Z,3.40
2019-02-05T01:05:36.428Z,3.50
2019-02-05T01:08:18.039Z,3.40
2019-02-05T01:10:57.616Z,3.50
2019-02-05T01:13:46.021Z,3.50
2019-02-05T01:16:15.671Z,3.50
2019-02-05T01:19:04.171Z,3.50
2019-02-05T01:21:45.241Z,3.50
2019-02-05T01:24:25.899Z,3.50
2019-02-05T01:27:06.608Z,3.50
2019-02-05T01:29:47.707Z,3.50
2019-02-05T01:32:29.348Z,3.50
2019-02-05T01:34:58.548Z,3.50
2019-02-05T01:37:46.984Z,3.50
2019-02-05T01:40:35.487Z,3.50
2019-02-05T01:43:16.565Z,3.50
2019-02-05T01:45:57.924Z,3.60
2019-02-05T01:48:39.384Z,3.50
2019-02-05T01:51:20.842Z,3.50
2019-02-05T01:54:01.948Z,3.50
2019-02-05T01:56:43.566Z,3.50
2019-02-05T01:59:24.835Z,3.50
2019-02-05T02:01:54.046Z,3.50
2019-02-05T02:04:42.538Z,3.50
2019-02-05T02:07:30.994Z,3.50
2019-02-05T02:10:12.066Z,3.50
2019-02-05T02:12:53.435Z,3.50
2019-02-05T02:15:34.726Z,3.50
2019-02-05T02:18:15.683Z,3.50
2019-02-05T02:20:56.321Z,3.50
2019-02-05T02:23:37.373Z,3.50
2019-02-05T02:26:18.400Z,3.50
2019-02-05T02:28:59.569Z,3.50
2019-02-05T02:31:40.546Z,3.50
2019-02-05T02:34:21.832Z,3.60
2019-02-05T02:37:03.248Z,3.60
2019-02-05T02:39:32.833Z,3.60
2019-02-05T02:42:21.309Z,3.60
2019-02-05T02:45:10.612Z,3.50
2019-02-05T02:47:51.590Z,3.50
2019-02-05T02:50:32.512Z,3.50
2019-02-05T02:53:13.227Z,3.50
2019-02-05T02:59:04.788Z,3.50
2019-02-05T03:01:45.430Z,3.50
2019-02-05T03:04:26.248Z,3.40
2019-02-05T03:07:06.950Z,3.50
2019-02-05T03:09:48.327Z,3.50
2019-02-05T03:12:29.890Z,3.40
2019-02-05T03:15:10.810Z,3.50
2019-02-05T03:17:50.517Z,3.50
2019-02-05T03:20:32.220Z,3.50
2019-02-05T03:23:13.730Z,3.40
2019-02-05T03:25:43.822Z,3.50
2019-02-05T03:28:32.302Z,3.40
2019-02-05T03:31:22.327Z,3.50
2019-02-05T03:34:02.982Z,3.50
2019-02-05T03:36:43.856Z,3.50
2019-02-05T03:39:23.420Z,3.50
2019-02-05T03:42:06.528Z,3.50
2019-02-05T03:44:47.266Z,3.50
2019-02-05T03:47:28.523Z,3.60
2019-02-05T03:50:09.971Z,3.60
2019-02-05T03:52:50.683Z,3.60
2019-02-05T03:55:32.390Z,3.60
2019-02-05T03:58:25.152Z,3.60
2019-02-05T04:01:32.679Z,3.60
2019-02-05T04:04:13.941Z,3.50
2019-02-05T04:06:55.128Z,3.60
2019-02-05T04:09:36.448Z,3.60
2019-02-05T04:12:17.424Z,3.60
2019-02-05T04:14:58.522Z,3.60
2019-02-05T04:18:06.289Z,3.60
2019-02-05T04:21:13.827Z,3.60
2019-02-05T04:23:54.624Z,3.50
2019-02-05T04:26:36.223Z,3.50
2019-02-05T04:29:17.095Z,3.50
2019-02-05T04:31:57.909Z,3.50
2019-02-05T04:35:05.642Z,3.50
2019-02-05T04:37:46.491Z,3.50
2019-02-05T04:40:28.036Z,3.50
2019-02-05T04:43:09.302Z,3.50
2019-02-05T04:45:50.545Z,3.50
2019-02-05T04:48:31.333Z,3.60
2019-02-05T04:51:12.389Z,3.60
2019-02-05T04:53:53.841Z,3.60
2019-02-05T04:56:34.785Z,3.60
2019-02-05T04:59:15.793Z,3.50
2019-02-05T05:01:57.137Z,3.50
2019-02-05T05:04:38.373Z,3.50
2019-02-05T05:07:40.454Z,3.50
2019-02-05T05:10:28.865Z,3.50
2019-02-05T05:13:10.008Z,3.50
2019-02-05T05:15:51.242Z,3.50
2019-02-05T05:18:32.705Z,3.50
2019-02-05T05:21:14.124Z,3.40
2019-02-05T05:23:55.284Z,3.40
2019-02-05T05:26:36.502Z,3.40
2019-02-05T05:29:17.157Z,3.40
2019-02-05T05:31:57.196Z,3.40
2019-02-05T05:34:38.030Z,3.40
2019-02-05T05:37:18.975Z,3.40
2019-02-05T05:40:00.371Z,3.40
2019-02-05T05:45:43.631Z,3.50
2019-02-05T05:48:25.048Z,3.50
2019-02-05T05:51:06.014Z,3.50
2019-02-05T05:53:47.503Z,3.50
2019-02-05T05:56:28.671Z,3.50
2019-02-05T05:59:10.251Z,3.50
2019-02-05T06:01:51.459Z,3.50
2019-02-05T06:04:32.629Z,3.50
2019-02-05T06:07:13.991Z,3.50
2019-02-05T06:09:55.280Z,3.50
2019-02-05T06:12:36.435Z,3.50
2019-02-05T06:15:17.972Z,3.50
2019-02-05T06:17:59.407Z,3.50
2019-02-05T06:20:40.421Z,3.50
2019-02-05T06:23:21.753Z,3.50
2019-02-05T06:26:03.204Z,3.50
2019-02-05T06:28:44.368Z,3.60
2019-02-05T06:31:13.876Z,3.50
2019-02-05T06:34:02.294Z,3.60
2019-02-05T06:36:50.712Z,3.60
2019-02-05T06:39:32.180Z,3.50
2019-02-05T06:42:13.716Z,3.50
2019-02-05T06:44:54.460Z,3.50
2019-02-05T06:47:35.924Z,3.50
2019-02-05T06:50:18.159Z,3.50
2019-02-05T06:52:58.907Z,3.60
2019-02-05T06:55:40.565Z,3.50
2019-02-05T06:58:21.838Z,3.60
2019-02-05T07:01:03.343Z,3.60
2019-02-05T07:03:44.535Z,3.60
2019-02-05T07:06:25.323Z,3.60
2019-02-05T07:09:06.486Z,3.60
2019-02-05T07:11:47.773Z,3.60
2019-02-05T07:14:28.756Z,3.60
2019-02-05T07:17:10.126Z,3.60
2019-02-05T07:19:51.674Z,3.60
2019-02-05T07:22:32.675Z,3.60
2019-02-05T07:25:13.679Z,3.60
2019-02-05T07:27:55.296Z,3.60
2019-02-05T07:30:36.518Z,3.60
2019-02-05T07:33:17.910Z,3.60
2019-02-05T07:35:59.396Z,3.60
2019-02-05T07:38:40.519Z,3.60
2019-02-05T07:41:21.785Z,3.60
2019-02-05T07:44:03.179Z,3.60
2019-02-05T07:46:44.292Z,3.60
2019-02-05T07:49:25.331Z,3.60
2019-02-05T07:52:06.674Z,3.60
2019-02-05T07:54:48.063Z,3.60
2019-02-05T08:00:26.114Z,3.60
2019-02-05T08:03:07.169Z,3.60
2019-02-05T08:05:48.590Z,3.60
2019-02-05T08:08:29.728Z,3.60
2019-02-05T08:11:10.647Z,3.60
2019-02-05T08:13:52.087Z,3.60
2019-02-05T08:16:34.064Z,3.60
2019-02-05T08:19:14.954Z,3.60
2019-02-05T08:21:55.999Z,3.60
2019-02-05T08:24:37.408Z,3.70
2019-02-05T08:27:18.384Z,3.70
2019-02-05T08:29:59.696Z,3.70
2019-02-05T08:32:41.074Z,3.70
2019-02-05T08:35:11.040Z,3.70
2019-02-05T08:37:59.461Z,3.70
2019-02-05T08:40:59.872Z,3.80
2019-02-05T08:43:30.930Z,3.80
2019-02-05T08:46:12.219Z,3.80
2019-02-05T08:48:53.447Z,3.80
2019-02-05T08:51:34.160Z,3.80
2019-02-05T08:54:14.807Z,3.80
2019-02-05T08:56:55.522Z,3.80
2019-02-05T08:59:36.823Z,3.90
2019-02-05T09:02:18.307Z,3.90
2019-02-05T09:04:59.693Z,3.90
2019-02-05T09:07:41.137Z,3.90
2019-02-05T09:10:22.375Z,3.90
2019-02-05T09:13:03.509Z,3.90
2019-02-05T09:15:44.534Z,3.90
2019-02-05T09:18:25.588Z,3.90
2019-02-05T09:21:06.564Z,4.00
2019-02-05T09:23:47.828Z,4.00
2019-02-05T09:26:29.164Z,4.00
2019-02-05T09:29:10.330Z,4.00
2019-02-05T09:31:51.864Z,4.00
2019-02-05T09:34:32.724Z,4.00
2019-02-05T09:37:13.639Z,4.10
2019-02-05T09:39:54.750Z,4.10
2019-02-05T09:42:34.237Z,4.10
2019-02-05T09:45:23.512Z,4.10
2019-02-05T09:48:06.464Z,4.20
2019-02-05T09:50:47.541Z,4.20
2019-02-05T09:53:28.792Z,4.20
2019-02-05T09:56:10.104Z,4.30
2019-02-05T09:58:51.728Z,4.30
2019-02-05T10:01:32.463Z,4.40
2019-02-05T10:04:01.721Z,4.40
2019-02-05T10:07:02.098Z,4.40
2019-02-05T10:09:33.014Z,4.50
2019-02-05T10:12:13.991Z,4.50
2019-02-05T10:14:55.368Z,4.60
2019-02-05T10:17:36.714Z,4.60
2019-02-05T10:20:17.983Z,4.70
2019-02-05T10:22:58.992Z,4.70
2019-02-05T10:25:40.589Z,4.90
2019-02-05T10:28:21.986Z,4.90
2019-02-05T10:30:51.754Z,5.10
2019-02-05T10:33:40.292Z,5.10
2019-02-05T10:36:21.260Z,5.00
2019-02-05T10:39:02.918Z,5.10
2019-02-05T10:41:44.156Z,5.20
2019-02-05T10:44:25.333Z,5.30
2019-02-05T10:47:06.516Z,5.00
2019-02-05T10:53:04.241Z,5.00
2019-02-05T10:55:45.234Z,5.20
2019-02-05T10:58:26.658Z,5.30
2019-02-05T11:01:07.432Z,5.50
2019-02-05T11:03:47.045Z,5.70
2019-02-05T11:06:47.882Z,5.80
2019-02-05T11:09:18.713Z,5.80
2019-02-05T11:11:59.855Z,5.50
2019-02-05T11:14:40.738Z,5.40
2019-02-05T11:17:21.762Z,5.30
2019-02-05T11:20:03.170Z,5.30
2019-02-05T11:22:44.449Z,5.30
2019-02-05T11:25:25.997Z,5.20
2019-02-05T11:31:16.233Z,5.80
2019-02-05T11:33:57.341Z,5.90
2019-02-05T11:36:38.381Z,5.90
2019-02-05T11:42:33.425Z,5.60
2019-02-05T11:45:14.567Z,5.50
2019-02-05T11:47:55.253Z,5.40
2019-02-05T11:50:24.501Z,5.50
2019-02-05T11:53:14.902Z,5.50
2019-02-05T11:56:03.473Z,6.00
2019-02-05T11:58:51.983Z,6.20
2019-02-05T12:01:39.147Z,6.20
2019-02-05T12:04:18.679Z,6.20
2019-02-05T12:06:59.976Z,6.30
2019-02-05T12:09:41.346Z,5.80
2019-02-05T12:12:22.643Z,5.60
2019-02-05T12:15:04.146Z,5.60
2019-02-05T12:17:45.708Z,5.50
2019-02-05T12:20:27.152Z,5.50
2019-02-05T12:22:56.399Z,5.50
2019-02-05T12:25:44.824Z,5.50
2019-02-05T12:28:33.264Z,5.50
2019-02-05T12:31:14.655Z,5.30
2019-02-05T12:33:55.851Z,5.40
2019-02-05T12:36:25.761Z,5.40
2019-02-05T12:39:33.285Z,5.40
2019-02-05T12:42:14.526Z,5.40
2019-02-05T12:44:55.635Z,5.60
2019-02-05T12:47:35.199Z,5.80
2019-02-05T12:53:27.975Z,6.10
2019-02-05T12:56:09.301Z,6.20
2019-02-05T12:58:50.607Z,6.20
2019-02-05T13:01:31.891Z,6.20
2019-02-05T13:04:12.843Z,5.70
2019-02-05T13:06:53.878Z,5.60
2019-02-05T13:09:34.735Z,5.60
2019-02-05T13:15:02.993Z,5.60
2019-02-05T13:17:51.673Z,5.60
2019-02-05T13:20:32.966Z,5.60
2019-02-05T13:23:14.146Z,5.60
2019-02-05T13:25:55.526Z,5.60
2019-02-05T13:28:36.249Z,5.60
2019-02-05T13:31:17.308Z,5.60
2019-02-05T13:33:58.527Z,5.60
2019-02-05T13:36:39.390Z,5.50
2019-02-05T13:39:20.095Z,5.50
2019-02-05T13:42:01.242Z,5.90
2019-02-05T13:44:42.415Z,6.00
2019-02-05T13:47:24.787Z,6.10
2019-02-05T13:50:05.951Z,6.20
2019-02-05T13:52:46.843Z,6.20
2019-02-05T13:55:27.789Z,5.80
2019-02-05T13:58:09.137Z,5.70
2019-02-05T14:00:50.219Z,5.60
2019-02-05T14:03:29.855Z,5.60
2019-02-05T14:06:18.375Z,5.60
2019-02-05T14:09:09.974Z,5.70
2019-02-05T14:11:42.039Z,5.70
2019-02-05T14:14:23.292Z,5.70
2019-02-05T14:17:04.871Z,5.70
2019-02-05T14:19:46.316Z,5.80
2019-02-05T14:22:27.372Z,5.80
2019-02-05T14:25:08.326Z,5.70
2019-02-05T14:30:50.452Z,6.00
2019-02-05T14:33:31.216Z,6.10
2019-02-05T14:36:12.402Z,6.20
2019-02-05T14:38:53.850Z,6.20
2019-02-05T14:41:34.986Z,5.90
2019-02-05T14:44:16.404Z,5.90
2019-02-05T14:46:57.928Z,5.90
2019-02-05T14:49:39.436Z,5.90
2019-02-05T14:52:20.767Z,5.90
2019-02-05T14:55:02.267Z,5.90
2019-02-05T14:57:31.534Z,5.90
2019-02-05T15:00:21.608Z,6.00
2019-02-05T15:03:02.569Z,5.90
2019-02-05T15:05:43.587Z,5.90
2019-02-05T15:08:24.344Z,6.00
2019-02-05T15:11:05.515Z,5.90
2019-02-05T15:13:46.888Z,6.00
2019-02-05T15:16:27.982Z,6.10
2019-02-05T15:19:09.399Z,6.20
2019-02-05T15:21:50.923Z,6.30
2019-02-05T15:24:37.480Z,6.30
2019-02-05T15:27:13.444Z,6.30
2019-02-05T15:30:01.942Z,6.20
2019-02-05T15:33:05.093Z,6.10
2019-02-05T15:35:50.495Z,6.00
2019-02-05T15:38:31.491Z,6.00
2019-02-05T15:41:11.132Z,6.00
2019-02-05T15:43:50.668Z,5.90
2019-02-05T15:46:20.186Z,6.10
2019-02-05T15:48:51.639Z,6.10
2019-02-05T15:51:41.162Z,6.00
2019-02-05T15:54:21.925Z,5.90
2019-02-05T15:56:51.810Z,5.90
2019-02-05T16:02:40.845Z,5.80
2019-02-05T16:05:30.984Z,5.80
2019-02-05T16:11:07.667Z,5.70
2019-02-05T16:13:56.229Z,5.70
2019-02-05T16:16:38.820Z,5.60
2019-02-05T16:19:08.337Z,5.40
2019-02-05T16:21:37.996Z,5.00
2019-02-05T16:24:07.163Z,5.00
2019-02-05T16:26:55.545Z,4.90
2019-02-05T16:29:36.941Z,4.80
2019-02-05T16:32:18.083Z,4.70
2019-02-05T16:34:59.026Z,4.60
2019-02-05T16:37:40.228Z,4.50
2019-02-05T16:40:20.996Z,4.50
2019-02-05T16:42:50.560Z,4.40
2019-02-05T16:45:38.980Z,4.40
2019-02-05T16:48:19.954Z,4.30
2019-02-05T16:51:00.599Z,4.40
2019-02-05T16:53:41.655Z,4.40
2019-02-05T16:56:11.679Z,4.30
2019-02-05T16:59:00.061Z,4.30
2019-02-05T17:01:40.801Z,4.10
2019-02-05T17:04:22.084Z,4.00
2019-02-05T17:09:47.383Z,4.00
2019-02-05T17:12:36.099Z,3.90
2019-02-05T17:15:18.717Z,3.90
2019-02-05T17:17:59.427Z,3.80
2019-02-05T17:20:40.665Z,3.80
2019-02-05T17:23:21.928Z,3.70
2019-02-05T17:26:03.196Z,3.70
2019-02-05T17:28:44.156Z,3.60
2019-02-05T17:31:25.299Z,3.60
2019-02-05T17:34:06.528Z,3.70
2019-02-05T17:36:47.701Z,3.70
2019-02-05T17:39:29.797Z,3.70
2019-02-05T17:42:11.248Z,3.70
2019-02-05T17:44:52.144Z,3.70
2019-02-05T17:47:33.588Z,3.70
2019-02-05T17:50:14.313Z,3.70
2019-02-05T17:52:55.783Z,3.70
2019-02-05T17:55:25.088Z,3.70
2019-02-05T17:57:55.056Z,3.70
2019-02-05T18:01:02.519Z,3.70
2019-02-05T18:06:51.179Z,3.60
2019-02-05T18:09:32.583Z,3.50
2019-02-05T18:12:14.247Z,3.50
2019-02-05T18:15:02.874Z,3.40
2019-02-05T18:17:44.042Z,3.40
2019-02-05T18:20:24.997Z,3.40
2019-02-05T18:23:05.980Z,3.40
2019-02-05T18:25:47.329Z,3.30
2019-02-05T18:28:30.893Z,3.30
2019-02-05T18:31:11.264Z,3.30
2019-02-05T18:33:52.935Z,3.20
2019-02-05T18:36:22.254Z,3.20
2019-02-05T18:39:10.812Z,3.20
2019-02-05T18:41:52.113Z,3.10
2019-02-05T18:44:33.579Z,3.10
2019-02-05T18:47:14.940Z,3.10
2019-02-05T18:49:56.479Z,3.20
2019-02-05T18:52:37.191Z,3.30
2019-02-05T18:55:10.435Z,3.30
2019-02-05T18:58:08.943Z,3.40
2019-02-05T19:00:41.330Z,3.40
2019-02-05T19:03:22.566Z,3.40
2019-02-05T19:06:04.039Z,3.40
2019-02-05T19:08:45.152Z,3.40
2019-02-05T19:11:26.599Z,3.50
2019-02-05T19:14:07.634Z,3.50
2019-02-05T19:16:49.080Z,3.50
2019-02-05T19:19:30.022Z,3.60
2019-02-05T19:22:10.733Z,3.60
2019-02-05T19:24:58.511Z,3.70
2019-02-05T19:27:39.283Z,3.80
2019-02-05T19:30:21.718Z,3.70
2019-02-05T19:32:51.260Z,3.70
2019-02-05T19:35:40.922Z,3.80
2019-02-05T19:38:29.385Z,3.80
2019-02-05T19:41:10.259Z,3.80
2019-02-05T19:43:50.072Z,3.90
2019-02-05T19:46:49.791Z,3.80
2019-02-05T19:49:36.342Z,3.90
2019-02-05T19:52:17.901Z,3.90
2019-02-05T19:54:59.398Z,3.90
2019-02-05T19:57:40.041Z,3.90
2019-02-05T20:00:21.719Z,4.00
2019-02-05T20:03:03.487Z,4.00
2019-02-05T20:05:45.740Z,4.00
2019-02-05T20:08:27.205Z,4.10
2019-02-05T20:11:08.792Z,4.10
2019-02-05T20:13:49.985Z,4.10
2019-02-05T20:16:31.127Z,4.20
2019-02-05T20:19:12.478Z,4.10
2019-02-05T20:21:53.508Z,4.10
2019-02-05T20:24:34.987Z,4.10
2019-02-05T20:27:15.766Z,4.10
2019-02-05T20:29:57.048Z,4.00
2019-02-05T20:32:38.436Z,3.90
2019-02-05T20:38:35.836Z,3.90
2019-02-05T20:41:16.942Z,4.00
2019-02-05T20:43:57.895Z,4.00
2019-02-05T20:46:39.306Z,4.00
2019-02-05T20:49:20.222Z,4.10
2019-02-05T20:52:01.536Z,4.00
2019-02-05T20:54:42.693Z,4.00
2019-02-05T20:57:23.669Z,4.00
2019-02-05T21:00:04.867Z,4.00
2019-02-05T21:02:46.143Z,3.90
2019-02-05T21:05:26.929Z,3.90
2019-02-05T21:08:08.159Z,3.80
2019-02-05T21:10:37.817Z,3.80
2019-02-05T21:13:26.381Z,3.70
2019-02-05T21:16:14.978Z,3.60
2019-02-05T21:18:55.756Z,3.60
2019-02-05T21:21:37.206Z,3.70
2019-02-05T21:24:18.788Z,3.60
2019-02-05T21:27:00.028Z,3.60
2019-02-05T21:29:40.705Z,3.50
2019-02-05T21:32:22.019Z,3.50
2019-02-05T21:35:03.418Z,3.50
2019-02-05T21:37:44.414Z,3.40
2019-02-05T21:40:25.869Z,3.40
2019-02-05T21:43:07.346Z,3.40
2019-02-05T21:45:48.462Z,3.40
2019-02-05T21:48:29.792Z,3.40
2019-02-05T21:51:10.521Z,3.30
2019-02-05T21:53:51.838Z,3.30
2019-02-05T21:56:33.002Z,3.30
2019-02-05T21:59:13.804Z,3.20
2019-02-05T22:01:54.580Z,3.20
2019-02-05T22:04:27.019Z,3.30
2019-02-05T22:07:14.020Z,3.30
2019-02-05T22:09:55.169Z,3.30
2019-02-05T22:12:35.873Z,3.30
2019-02-05T22:18:29.535Z,3.30
2019-02-05T22:21:10.764Z,3.20
2019-02-05T22:23:52.083Z,3.30
2019-02-05T22:26:32.951Z,3.30
2019-02-05T22:29:14.459Z,3.30
2019-02-05T22:31:55.894Z,3.30
2019-02-05T22:34:39.523Z,3.40
2019-02-05T22:37:19.984Z,3.30
2019-02-05T22:40:01.342Z,3.30
2019-02-05T22:42:42.704Z,3.30
2019-02-05T22:45:23.685Z,3.30
2019-02-05T22:48:04.587Z,3.20
2019-02-05T22:50:46.142Z,3.20
2019-02-05T22:53:27.654Z,3.20
2019-02-05T22:56:09.034Z,3.30
2019-02-05T22:58:50.270Z,3.40
2019-02-05T23:01:31.685Z,3.40
2019-02-05T23:04:12.838Z,3.30
2019-02-05T23:06:53.691Z,3.30
2019-02-05T23:09:34.387Z,3.30
2019-02-05T23:12:15.944Z,3.30
2019-02-05T23:14:57.249Z,3.20
2019-02-05T23:17:38.566Z,3.20
2019-02-05T23:20:11.753Z,3.20
2019-02-05T23:23:00.226Z,3.20
2019-02-05T23:25:48.670Z,3.20
2019-02-05T23:28:29.854Z,3.20
2019-02-05T23:31:11.088Z,3.20
2019-02-05T23:33:51.795Z,3.10
2019-02-05T23:36:32.990Z,3.10
2019-02-05T23:39:14.398Z,3.20
2019-02-05T23:41:55.512Z,3.30
2019-02-05T23:44:36.665Z,3.20
2019-02-05T23:47:06.031Z,3.20
2019-02-05T23:49:54.444Z,3.20
2019-02-05T23:52:43.181Z,3.20
2019-02-05T23:55:52.767Z,3.20
2019-02-05T23:58:41.190Z,3.20
